Time;durP1;ratioP1;P1;durP2;ratioP2;P2;SDS_P1;SDS_P2;PMS_P1;PMS_P2;Temp;Humidity;BMP_temperature;BMP_pressure;BME280_temperature;BME280_humidity;BME280_pressure;Samples;Min_cycle;Max_cycle;Signal;HPM_P1;HPM_P2
2021/12/23 00:00:33;;;;;;;32.40;15.80;;;-2.50;99.90;;;;;;5038300;28;20486;-77
2021/12/23 00:02:58;;;;;;;30.20;15.80;;;-2.50;99.90;;;;;;5037887;28;20064;-77
2021/12/23 00:05:24;;;;;;;27.48;14.77;;;-2.40;99.90;;;;;;5037601;28;20041;-77
2021/12/23 00:07:49;;;;;;;26.10;14.75;;;-2.40;99.90;;;;;;5038064;28;20049;-76
2021/12/23 00:10:15;;;;;;;29.73;16.50;;;-2.30;99.90;;;;;;5038334;28;20034;-77
2021/12/23 00:12:43;;;;;;;33.35;16.35;;;-2.30;99.90;;;;;;5036981;28;20128;-75
2021/12/23 00:18:29;;;;;;;31.92;16.70;;;-2.00;99.90;;;;;;5015723;28;20080;-76
2021/12/23 00:23:55;;;;;;;;;;;-2.20;99.90;;;;;;5014913;28;20275;-76
2021/12/23 00:26:21;;;;;;;28.10;14.95;;;-2.10;99.90;;;;;;5037766;28;19924;-76
2021/12/23 00:28:46;;;;;;;28.83;15.30;;;-2.00;99.90;;;;;;5035645;28;20041;-75
2021/12/23 00:31:14;;;;;;;28.27;15.25;;;-2.00;99.90;;;;;;5035995;28;20425;-77
2021/12/23 00:33:40;;;;;;;28.38;15.55;;;-2.00;99.90;;;;;;5036437;28;20045;-75
2021/12/23 00:36:14;;;;;;;31.02;15.18;;;-1.90;99.90;;;;;;5036486;28;20041;-77
2021/12/23 00:38:47;;;;;;;28.17;13.82;;;-1.90;99.90;;;;;;5035842;28;20045;-77
2021/12/23 00:41:13;;;;;;;23.58;13.70;;;-1.90;99.90;;;;;;5038799;28;20072;-76
2021/12/23 00:43:39;;;;;;;27.00;14.35;;;-1.80;99.90;;;;;;5038869;28;20072;-76
2021/12/23 00:46:05;;;;;;;26.92;14.73;;;-1.80;99.90;;;;;;5039015;28;20046;-77
2021/12/23 00:48:31;;;;;;;27.85;14.82;;;-1.80;99.90;;;;;;5038481;28;20095;-76
2021/12/23 00:50:57;;;;;;;;;;;-1.80;99.90;;;;;;5039175;28;20460;-77
2021/12/23 00:53:23;;;;;;;25.52;14.07;;;-1.80;99.90;;;;;;5037883;28;19996;-77
2021/12/23 00:55:54;;;;;;;30.80;15.75;;;-1.70;99.90;;;;;;5039395;28;20076;-77
2021/12/23 00:58:21;;;;;;;29.15;15.85;;;-1.80;99.90;;;;;;5039989;28;20148;-77
2021/12/23 01:00:48;;;;;;;25.42;15.30;;;-1.70;99.90;;;;;;5039503;28;20061;-77
2021/12/23 01:03:15;;;;;;;28.98;16.58;;;-1.70;99.90;;;;;;5040327;28;20065;-77
2021/12/23 01:05:41;;;;;;;28.15;15.68;;;-1.70;99.90;;;;;;5038987;28;20041;-76
2021/12/23 01:08:08;;;;;;;26.02;14.95;;;-1.70;99.90;;;;;;5040716;28;20060;-76
2021/12/23 01:10:34;;;;;;;28.58;15.02;;;-1.70;99.90;;;;;;5040347;28;20041;-76
2021/12/23 01:13:04;;;;;;;27.10;14.55;;;-1.70;99.90;;;;;;5039438;28;20447;-77
2021/12/23 01:18:09;;;;;;;28.60;14.75;;;-1.70;99.90;;;;;;5040627;28;20067;-77
2021/12/23 01:20:38;;;;;;;29.45;15.30;;;-1.60;99.90;;;;;;5040069;28;20064;-76
2021/12/23 01:23:07;;;;;;;22.60;13.45;;;-1.60;99.90;;;;;;5039356;28;20052;-77
2021/12/23 01:25:35;;;;;;;25.25;14.85;;;-1.50;99.90;;;;;;5040731;28;20069;-76
2021/12/23 01:28:01;;;;;;;26.05;14.13;;;-1.50;99.90;;;;;;5040404;28;20448;-75
2021/12/23 01:30:27;;;;;;;25.15;15.13;;;-1.50;99.90;;;;;;5040028;28;20405;-77
2021/12/23 01:32:55;;;;;;;26.08;13.70;;;-1.50;99.90;;;;;;5038985;28;20133;-76
2021/12/23 01:35:21;;;;;;;24.95;13.27;;;-1.50;99.90;;;;;;5038285;28;20049;-76
2021/12/23 01:37:47;;;;;;;;;;;-1.40;99.90;;;;;;5040224;28;20080;-75
2021/12/23 01:40:14;;;;;;;26.95;13.85;;;-1.40;99.90;;;;;;5039104;28;19925;-77
2021/12/23 01:42:40;;;;;;;25.10;14.45;;;-1.30;99.90;;;;;;5037438;28;20048;-77
2021/12/23 01:45:11;;;;;;;27.65;15.27;;;-1.40;99.90;;;;;;5037232;28;20037;-76
2021/12/23 01:47:37;;;;;;;27.65;14.48;;;-1.30;99.90;;;;;;5037267;28;20052;-76
2021/12/23 01:50:04;;;;;;;26.45;13.85;;;-1.30;99.90;;;;;;5037894;28;20045;-77
2021/12/23 01:52:30;;;;;;;29.50;16.80;;;-1.30;99.90;;;;;;5037541;28;20041;-76
2021/12/23 01:54:56;;;;;;;32.17;16.90;;;-1.20;99.90;;;;;;5038794;28;20045;-76
2021/12/23 01:57:23;;;;;;;33.72;17.77;;;-1.10;99.90;;;;;;5038073;28;20052;-77
2021/12/23 01:59:48;;;;;;;27.70;14.07;;;-1.20;99.90;;;;;;5037459;28;20060;-77
2021/12/23 02:02:14;;;;;;;39.95;14.60;;;-1.20;99.90;;;;;;5039145;28;20045;-77
2021/12/23 02:04:40;;;;;;;31.17;16.52;;;-1.30;99.90;;;;;;5038681;28;20068;-76
2021/12/23 02:07:05;;;;;;;28.58;15.25;;;-1.30;99.90;;;;;;5039393;28;20053;-77
2021/12/23 02:09:31;;;;;;;38.08;17.05;;;-1.40;99.90;;;;;;5043323;28;20059;-76
2021/12/23 02:11:57;;;;;;;33.50;16.52;;;-1.40;99.90;;;;;;5059294;28;20131;-76
2021/12/23 02:14:23;;;;;;;31.42;16.08;;;-1.30;99.90;;;;;;5057323;28;20052;-77
2021/12/23 02:16:49;;;;;;;27.42;15.55;;;-1.30;99.90;;;;;;5037322;28;20057;-77
2021/12/23 02:19:20;;;;;;;31.48;18.15;;;-1.30;99.90;;;;;;5037604;28;20053;-77
2021/12/23 02:21:46;;;;;;;33.13;18.17;;;-1.30;99.90;;;;;;5038333;28;20053;-77
2021/12/23 02:24:13;;;;;;;36.80;16.30;;;-1.30;99.90;;;;;;5038755;28;20053;-77
2021/12/23 02:26:39;;;;;;;35.13;15.75;;;-1.30;99.90;;;;;;5038203;28;20071;-77
2021/12/23 02:29:05;;;;;;;30.02;15.50;;;-1.40;99.90;;;;;;5038784;28;20044;-77
2021/12/23 02:31:31;;;;;;;30.02;16.35;;;-1.40;99.90;;;;;;5037784;28;20338;-77
2021/12/23 02:33:57;;;;;;;31.75;15.07;;;-1.30;99.90;;;;;;5037152;28;20095;-76
2021/12/23 02:36:23;;;;;;;25.52;13.20;;;-1.30;99.90;;;;;;5038218;28;20041;-76
2021/12/23 02:38:49;;;;;;;27.10;14.15;;;-1.30;99.90;;;;;;5037594;28;20109;-77
2021/12/23 02:41:14;;;;;;;30.33;16.08;;;-1.40;99.90;;;;;;5038376;28;20073;-77
2021/12/23 02:43:40;;;;;;;29.35;16.98;;;-1.30;99.90;;;;;;5038593;28;20045;-76
2021/12/23 02:46:06;;;;;;;27.27;14.38;;;-1.30;99.90;;;;;;5039109;28;20049;-77
2021/12/23 02:48:35;;;;;;;28.10;13.88;;;-1.30;99.90;;;;;;5037958;28;20045;-77
2021/12/23 02:51:05;;;;;;;29.70;15.13;;;-1.20;99.90;;;;;;5038652;28;20129;-78
2021/12/23 02:53:30;;;;;;;30.13;14.60;;;-1.40;99.90;;;;;;5037654;28;20076;-78
2021/12/23 02:55:58;;;;;;;27.50;15.57;;;-1.20;99.90;;;;;;5037684;28;20037;-77
2021/12/23 02:58:23;;;;;;;22.08;13.45;;;-1.30;99.90;;;;;;5037744;28;20049;-76
2021/12/23 03:00:51;;;;;;;27.90;15.90;;;-1.20;99.90;;;;;;5038179;28;20071;-77
2021/12/23 03:03:18;;;;;;;33.22;16.75;;;-1.20;99.90;;;;;;5038154;28;20068;-76
2021/12/23 03:05:52;;;;;;;23.73;14.38;;;-1.20;99.90;;;;;;5038923;28;20049;-78
2021/12/23 03:08:34;;;;;;;26.73;14.35;;;-1.20;99.90;;;;;;5038578;28;20136;-77
2021/12/23 03:11:00;;;;;;;27.70;14.32;;;-1.10;99.90;;;;;;5054591;28;20075;-77
2021/12/23 03:13:26;;;;;;;27.75;13.98;;;-1.10;99.90;;;;;;5057473;28;20124;-76
2021/12/23 03:15:52;;;;;;;30.85;14.27;;;-1.10;99.90;;;;;;5058098;28;20056;-77
2021/12/23 03:18:18;;;;;;;25.83;12.38;;;-1.10;99.90;;;;;;5057780;28;20053;-79
2021/12/23 03:20:43;;;;;;;26.77;14.75;;;-1.10;99.90;;;;;;5058645;28;20373;-76
2021/12/23 03:23:09;;;;;;;25.90;13.55;;;-1.10;99.90;;;;;;5057053;28;20045;-77
2021/12/23 03:25:35;;;;;;;30.70;15.07;;;-1.00;99.90;;;;;;5059689;28;20041;-78
2021/12/23 03:28:00;;;;;;;27.02;15.07;;;-1.00;99.90;;;;;;5056263;28;20128;-77
2021/12/23 03:30:26;;;;;;;26.95;14.48;;;-1.00;99.90;;;;;;5040656;28;20049;-77
2021/12/23 03:32:52;;;;;;;22.60;11.95;;;-1.00;99.90;;;;;;5057054;28;20339;-77
2021/12/23 03:35:18;;;;;;;24.88;13.68;;;-1.00;99.90;;;;;;5057989;28;20392;-78
2021/12/23 03:37:44;;;;;;;30.52;13.48;;;-1.00;99.90;;;;;;5058296;28;20162;-77
2021/12/23 03:40:11;;;;;;;25.10;14.13;;;-0.90;99.90;;;;;;5059810;28;20041;-77
2021/12/23 03:42:37;;;;;;;;;;;-0.90;99.90;;;;;;5059002;28;20470;-77
2021/12/23 03:45:05;;;;;;;28.05;13.18;;;-0.90;99.90;;;;;;5058016;28;19924;-77
2021/12/23 03:47:30;;;;;;;26.92;12.88;;;-0.90;99.90;;;;;;5057505;28;20067;-77
2021/12/23 03:49:56;;;;;;;24.80;12.35;;;-0.90;99.90;;;;;;5057268;28;20073;-77
2021/12/23 03:52:22;;;;;;;26.38;13.50;;;-0.90;99.90;;;;;;5056111;28;20037;-77
2021/12/23 03:54:47;;;;;;;27.60;14.55;;;-0.90;99.90;;;;;;5058249;28;20037;-77
2021/12/23 03:57:13;;;;;;;26.02;14.40;;;-0.90;99.90;;;;;;5058130;28;20107;-78
2021/12/23 03:59:38;;;;;;;27.00;15.05;;;-0.90;99.90;;;;;;5058428;28;20090;-77
2021/12/23 04:02:04;;;;;;;27.27;14.23;;;-0.90;99.90;;;;;;5058716;28;20440;-77
2021/12/23 04:04:30;;;;;;;28.67;13.88;;;-0.90;99.90;;;;;;5059124;28;20056;-76
2021/12/23 04:06:56;;;;;;;33.33;14.80;;;-0.90;99.90;;;;;;5058516;28;20052;-76
2021/12/23 04:09:22;;;;;;;29.05;13.60;;;-0.90;99.90;;;;;;5058047;28;20053;-77
2021/12/23 04:11:48;;;;;;;29.05;13.77;;;-0.90;99.90;;;;;;5059050;28;20110;-77
2021/12/23 04:14:13;;;;;;;26.75;13.55;;;-0.90;99.90;;;;;;5059399;28;20040;-76
2021/12/23 04:16:39;;;;;;;26.13;14.75;;;-0.90;99.90;;;;;;5059622;28;20044;-77
2021/12/23 04:19:07;;;;;;;27.60;13.45;;;-0.90;99.90;;;;;;5058833;28;20092;-78
2021/12/23 04:21:34;;;;;;;26.33;12.98;;;-0.90;99.90;;;;;;5058889;28;20048;-78
2021/12/23 04:24:00;;;;;;;24.63;12.25;;;-0.90;99.90;;;;;;5058559;28;20085;-76
2021/12/23 04:26:25;;;;;;;24.85;13.70;;;-0.90;99.90;;;;;;5059732;28;20052;-77
2021/12/23 04:28:52;;;;;;;28.00;13.95;;;-0.90;99.90;;;;;;5059331;28;20049;-75
2021/12/23 04:31:20;;;;;;;29.48;14.48;;;-0.80;99.90;;;;;;5060673;28;20049;-78
2021/12/23 04:33:47;;;;;;;27.58;15.65;;;-0.80;99.90;;;;;;5061089;28;20037;-77
2021/12/23 04:36:13;;;;;;;31.38;15.80;;;-0.80;99.90;;;;;;5058815;28;20059;-77
2021/12/23 04:38:40;;;;;;;25.70;14.93;;;-0.80;99.90;;;;;;5061610;28;20041;-77
2021/12/23 04:41:06;;;;;;;26.33;14.68;;;-0.80;99.90;;;;;;5063298;28;20056;-77
2021/12/23 04:43:32;;;;;;;24.60;13.13;;;-0.90;99.90;;;;;;5063456;28;20547;-77
2021/12/23 04:45:58;;;;;;;21.58;12.75;;;-0.80;99.90;;;;;;5065475;28;20739;-77
2021/12/23 04:48:23;;;;;;;26.20;16.15;;;-0.80;99.90;;;;;;5062562;28;20529;-77
2021/12/23 04:50:49;;;;;;;28.02;15.40;;;-0.80;99.90;;;;;;5062723;28;20037;-78
2021/12/23 04:53:15;;;;;;;29.60;14.18;;;-0.80;99.90;;;;;;5063376;28;20101;-78
2021/12/23 04:55:42;;;;;;;27.08;14.85;;;-0.80;99.90;;;;;;5063123;28;20044;-77
2021/12/23 04:58:07;;;;;;;24.83;14.05;;;-0.70;99.90;;;;;;5063490;28;20056;-78
2021/12/23 05:00:33;;;;;;;25.25;15.38;;;-0.70;99.90;;;;;;5063515;28;20510;-77
2021/12/23 05:02:59;;;;;;;25.73;14.32;;;-0.70;99.90;;;;;;5064159;28;20504;-77
2021/12/23 05:05:24;;;;;;;33.35;14.65;;;-0.80;99.90;;;;;;5063480;28;20033;-78
2021/12/23 05:07:50;;;;;;;25.88;14.07;;;-0.80;99.90;;;;;;5064830;28;20045;-78
2021/12/23 05:10:16;;;;;;;28.27;14.13;;;-0.80;99.90;;;;;;5063849;28;20582;-76
2021/12/23 05:12:45;;;;;;;29.60;14.75;;;-0.70;99.90;;;;;;5063876;28;20073;-77
2021/12/23 05:15:16;;;;;;;29.63;15.35;;;-0.70;99.90;;;;;;5062554;28;20045;-77
2021/12/23 05:17:42;;;;;;;27.33;14.63;;;-0.70;99.90;;;;;;5063949;28;20044;-78
2021/12/23 05:20:10;;;;;;;25.95;14.25;;;-0.60;99.90;;;;;;5062449;28;20107;-77
2021/12/23 05:22:36;;;;;;;29.27;16.40;;;-0.60;99.90;;;;;;5062374;28;20053;-77
2021/12/23 05:25:02;;;;;;;26.55;14.32;;;-0.60;99.90;;;;;;5062585;28;20107;-78
2021/12/23 05:27:28;;;;;;;;;;;-0.70;99.90;;;;;;5064319;28;20049;-78
2021/12/23 05:29:53;;;;;;;24.25;13.27;;;-0.70;99.90;;;;;;5062242;28;19974;-78
2021/12/23 05:32:19;;;;;;;28.17;14.95;;;-0.70;99.90;;;;;;5062809;28;20047;-77
2021/12/23 05:34:45;;;;;;;29.02;15.80;;;-0.60;99.90;;;;;;5063201;28;20116;-77
2021/12/23 05:37:10;;;;;;;30.30;14.05;;;-0.60;99.90;;;;;;5061069;28;20052;-77
2021/12/23 05:39:36;;;;;;;30.20;15.85;;;-0.60;99.90;;;;;;5062964;28;20041;-78
2021/12/23 05:42:02;;;;;;;26.38;14.70;;;-0.60;99.90;;;;;;5042068;28;20293;-79
2021/12/23 05:44:28;;;;;;;22.73;12.60;;;-0.60;99.90;;;;;;5060413;28;20037;-77
2021/12/23 05:46:53;;;;;;;24.60;14.50;;;-0.50;99.90;;;;;;5059900;28;20055;-77
2021/12/23 05:49:19;;;;;;;28.45;15.10;;;-0.50;99.90;;;;;;5060388;28;20041;-77
2021/12/23 05:51:45;;;;;;;27.30;14.20;;;-0.50;99.90;;;;;;5061892;28;20045;-78
2021/12/23 05:54:10;;;;;;;26.35;14.32;;;-0.50;99.90;;;;;;5061639;28;20072;-77
2021/12/23 05:56:36;;;;;;;31.33;14.85;;;-0.50;99.90;;;;;;5062242;28;20527;-78
2021/12/23 05:59:02;;;;;;;24.08;13.50;;;-0.50;99.90;;;;;;5060937;28;20065;-78
2021/12/23 06:01:27;;;;;;;28.95;15.25;;;-0.40;99.90;;;;;;5061517;28;20048;-78
2021/12/23 06:03:53;;;;;;;27.05;14.07;;;-0.50;99.90;;;;;;5058970;28;20049;-77
2021/12/23 06:06:19;;;;;;;29.00;16.23;;;-0.40;99.90;;;;;;5059700;28;20051;-77
2021/12/23 06:08:44;;;;;;;26.30;14.55;;;-0.40;99.90;;;;;;5058935;28;20179;-78
2021/12/23 06:11:10;;;;;;;26.23;14.80;;;-0.50;99.90;;;;;;5060583;28;20103;-78
2021/12/23 06:13:36;;;;;;;30.77;15.77;;;-0.50;99.90;;;;;;5058451;28;20048;-78
2021/12/23 06:16:02;;;;;;;28.33;14.73;;;-0.50;99.90;;;;;;5058146;28;20048;-78
2021/12/23 06:18:27;;;;;;;26.13;14.40;;;-0.50;99.90;;;;;;5057708;28;20090;-77
2021/12/23 06:20:53;;;;;;;25.88;13.70;;;-0.50;99.90;;;;;;5056082;28;20076;-78
2021/12/23 06:23:19;;;;;;;29.83;14.13;;;-0.40;99.90;;;;;;5059149;28;20048;-77
2021/12/23 06:25:44;;;;;;;28.80;15.57;;;-0.40;99.90;;;;;;5058807;28;20049;-79
2021/12/23 06:28:10;;;;;;;26.42;15.20;;;-0.50;99.90;;;;;;5059383;28;20053;-77
2021/12/23 06:30:36;;;;;;;27.55;14.70;;;-0.50;99.90;;;;;;5059229;28;20048;-78
2021/12/23 06:33:02;;;;;;;34.05;16.50;;;-0.40;99.90;;;;;;5056645;28;20037;-77
2021/12/23 06:35:29;;;;;;;29.25;13.40;;;-0.40;99.90;;;;;;5056255;28;20045;-77
2021/12/23 06:37:56;;;;;;;26.30;13.40;;;-0.40;99.90;;;;;;5056870;28;20044;-77
2021/12/23 06:40:22;;;;;;;27.10;13.70;;;-0.30;99.90;;;;;;5057720;28;20041;-77
2021/12/23 06:42:48;;;;;;;28.63;15.98;;;-0.30;99.90;;;;;;5057223;28;20104;-77
2021/12/23 06:45:15;;;;;;;28.95;15.43;;;-0.40;99.90;;;;;;5056774;28;20098;-78
2021/12/23 06:47:41;;;;;;;28.88;16.17;;;-0.30;99.90;;;;;;5057498;28;20040;-78
2021/12/23 06:50:09;;;;;;;27.52;15.43;;;-0.20;99.90;;;;;;5056441;28;20045;-77
2021/12/23 06:52:36;;;;;;;27.27;14.52;;;-0.20;99.90;;;;;;5055214;28;20088;-77
2021/12/23 06:55:02;;;;;;;36.90;16.33;;;-0.10;99.90;;;;;;5054829;28;20084;-78
2021/12/23 06:57:29;;;;;;;23.65;13.68;;;-0.20;99.90;;;;;;5055944;28;20105;-77
2021/12/23 06:59:54;;;;;;;;;;;-0.10;99.90;;;;;;5055118;28;20510;-77
2021/12/23 07:02:20;;;;;;;28.45;14.88;;;-0.10;99.90;;;;;;5049811;28;19925;-78
2021/12/23 07:04:45;;;;;;;26.98;15.73;;;0.00;99.90;;;;;;5048936;28;20049;-78
2021/12/23 07:07:19;;;;;;;29.25;15.15;;;0.00;99.90;;;;;;5049287;28;20668;-79
2021/12/23 07:09:45;;;;;;;29.92;17.27;;;0.00;99.90;;;;;;5048587;28;20118;-77
2021/12/23 07:12:12;;;;;;;23.05;12.95;;;0.00;99.90;;;;;;5049332;28;20492;-77
2021/12/23 07:14:39;;;;;;;32.85;15.30;;;0.00;99.90;;;;;;5048430;28;20067;-78
2021/12/23 07:17:07;;;;;;;29.33;15.70;;;0.00;99.90;;;;;;5048209;28;20080;-78
2021/12/23 07:19:32;;;;;;;31.88;16.23;;;0.10;99.90;;;;;;5047536;28;20052;-78
2021/12/23 07:21:58;;;;;;;31.30;16.17;;;0.00;99.90;;;;;;5048074;28;20488;-77
2021/12/23 07:24:23;;;;;;;33.60;17.48;;;0.00;99.90;;;;;;5047944;28;20056;-77
2021/12/23 07:26:49;;;;;;;32.60;14.60;;;0.00;99.90;;;;;;5048894;28;20068;-78
2021/12/23 07:29:15;;;;;;;27.17;14.18;;;0.00;99.90;;;;;;5047907;28;20060;-77
2021/12/23 07:31:41;;;;;;;29.23;14.85;;;0.00;99.90;;;;;;5047004;28;20044;-77
2021/12/23 07:34:06;;;;;;;27.20;16.30;;;0.00;99.90;;;;;;5046794;28;20060;-77
2021/12/23 07:36:33;;;;;;;31.38;16.48;;;-0.10;99.90;;;;;;5045949;28;20052;-77
2021/12/23 07:38:59;;;;;;;29.73;16.00;;;-0.10;99.90;;;;;;5047469;28;20454;-76
2021/12/23 07:41:26;;;;;;;31.25;17.52;;;-0.10;99.90;;;;;;5047728;28;20068;-77
2021/12/23 07:43:59;;;;;;;32.53;17.52;;;-0.20;99.90;;;;;;5046720;28;20452;-77
2021/12/23 07:46:27;;;;;;;32.45;17.17;;;-0.10;99.90;;;;;;5047434;28;20795;-77
2021/12/23 07:48:53;;;;;;;28.85;14.75;;;-0.10;99.90;;;;;;5046912;28;20416;-77
2021/12/23 07:51:19;;;;;;;;;;;-0.20;99.90;;;;;;5048154;28;20053;-77
2021/12/23 07:53:45;;;;;;;35.95;18.40;;;-0.10;99.90;;;;;;5047874;28;19924;-76
2021/12/23 07:56:10;;;;;;;34.30;17.92;;;-0.10;99.90;;;;;;5046914;28;20523;-77
2021/12/23 07:58:36;;;;;;;26.85;17.25;;;-0.10;99.90;;;;;;5047220;28;20060;-77
2021/12/23 08:01:02;;;;;;;30.05;17.60;;;-0.10;99.90;;;;;;5049502;28;20045;-77
2021/12/23 08:03:27;;;;;;;34.83;18.20;;;-0.10;99.90;;;;;;5048923;28;20083;-78
2021/12/23 08:05:53;;;;;;;32.35;16.55;;;-0.10;99.90;;;;;;5051519;28;20056;-77
2021/12/23 08:08:19;;;;;;;37.55;16.45;;;-0.10;99.90;;;;;;5053037;28;20055;-77
2021/12/23 08:10:45;;;;;;;;;;;0.00;99.90;;;;;;5052581;28;20053;-78
2021/12/23 08:13:11;;;;;;;31.35;16.58;;;-0.10;99.90;;;;;;5051525;28;20281;-78
2021/12/23 08:15:36;;;;;;;34.40;19.33;;;0.00;99.90;;;;;;5053810;28;20049;-78
2021/12/23 08:18:02;;;;;;;25.63;15.15;;;0.00;99.90;;;;;;5052216;28;20045;-77
2021/12/23 08:20:28;;;;;;;34.75;16.00;;;0.00;99.90;;;;;;5048565;28;20094;-78
2021/12/23 08:22:54;;;;;;;35.00;18.27;;;0.10;99.90;;;;;;5048976;28;20625;-77
2021/12/23 08:25:22;;;;;;;35.03;19.33;;;0.10;99.90;;;;;;5049076;28;20049;-78
2021/12/23 08:27:48;;;;;;;34.20;19.13;;;0.00;99.90;;;;;;5048422;28;20052;-78
2021/12/23 08:30:17;;;;;;;31.42;16.50;;;0.00;99.90;;;;;;5048265;28;20044;-78
2021/12/23 08:32:43;;;;;;;37.72;20.02;;;0.00;99.90;;;;;;5045342;28;20036;-77
2021/12/23 08:35:10;;;;;;;34.10;18.48;;;0.00;99.90;;;;;;5044743;28;20052;-77
2021/12/23 08:37:37;;;;;;;38.40;20.20;;;0.00;99.90;;;;;;5041405;28;20494;-78
2021/12/23 08:40:05;;;;;;;35.25;18.30;;;0.00;99.90;;;;;;5040091;28;20091;-77
2021/12/23 08:42:31;;;;;;;44.40;21.80;;;-0.10;99.90;;;;;;5040193;28;20052;-76
2021/12/23 08:44:56;;;;;;;33.28;18.38;;;0.00;99.90;;;;;;5045450;28;20037;-77
2021/12/23 08:47:22;;;;;;;34.90;20.25;;;0.00;99.90;;;;;;5044678;28;20127;-76
2021/12/23 08:49:48;;;;;;;33.67;17.65;;;0.00;99.90;;;;;;5044854;28;20048;-77
2021/12/23 08:52:14;;;;;;;37.13;18.75;;;0.10;99.90;;;;;;5044086;28;20109;-76
2021/12/23 08:54:42;;;;;;;34.83;19.20;;;0.10;99.90;;;;;;5045305;28;20412;-76
2021/12/23 08:57:09;;;;;;;38.05;19.33;;;0.10;99.90;;;;;;5039919;28;20041;-76
2021/12/23 08:59:34;;;;;;;35.67;21.08;;;0.10;99.90;;;;;;5045664;28;20055;-77
2021/12/23 09:02:00;;;;;;;39.05;20.90;;;0.10;99.90;;;;;;5048482;28;20037;-76
2021/12/23 09:04:26;;;;;;;42.72;19.90;;;0.10;99.90;;;;;;5047195;28;20048;-78
2021/12/23 09:06:51;;;;;;;34.28;19.55;;;0.10;99.90;;;;;;5046719;28;20071;-77
2021/12/23 09:09:18;;;;;;;36.05;20.40;;;0.10;99.90;;;;;;5046031;28;20762;-77
2021/12/23 09:11:45;;;;;;;38.00;20.13;;;0.20;99.90;;;;;;5045795;28;20135;-76
2021/12/23 09:14:11;;;;;;;38.50;19.55;;;0.10;99.90;;;;;;5046751;28;20252;-76
2021/12/23 09:16:38;;;;;;;29.60;15.60;;;0.20;99.90;;;;;;5043982;28;20056;-76
2021/12/23 09:19:05;;;;;;;33.92;19.60;;;0.50;99.90;;;;;;5046530;28;20045;-77
2021/12/23 09:21:30;;;;;;;36.75;19.33;;;0.10;99.90;;;;;;5046218;28;20048;-76
2021/12/23 09:23:57;;;;;;;41.72;21.33;;;0.20;99.90;;;;;;5046256;28;20045;-78
2021/12/23 09:26:23;;;;;;;;;;;0.20;99.90;;;;;;5027219;28;20076;-76
2021/12/23 09:32:41;;;;;;;35.90;20.30;;;0.20;99.90;;;;;;5044074;28;19964;-77
2021/12/23 09:34:28;;;;;;;41.10;21.63;;;0.10;99.90;;;;;;5038157;28;20132;-77
2021/12/23 09:36:53;;;;;;;42.63;22.17;;;0.20;99.90;;;;;;5028224;28;20766;-78
2021/12/23 09:39:19;;;;;;;42.25;21.48;;;0.10;99.90;;;;;;5027133;28;20052;-77
2021/12/23 09:41:46;;;;;;;45.75;24.40;;;0.10;99.90;;;;;;5027498;28;20056;-77
2021/12/23 09:44:11;;;;;;;45.70;24.40;;;0.20;99.90;;;;;;5026341;28;20045;-77
2021/12/23 09:46:38;;;;;;;46.13;22.75;;;0.20;99.90;;;;;;5027299;28;20049;-77
2021/12/23 09:49:05;;;;;;;47.67;23.55;;;0.20;99.90;;;;;;5026763;28;20061;-76
2021/12/23 09:51:33;;;;;;;49.75;26.17;;;0.20;99.90;;;;;;5025141;28;20045;-76
2021/12/23 09:54:01;;;;;;;53.42;23.60;;;0.30;99.90;;;;;;5027975;28;20054;-78
2021/12/23 09:56:31;;;;;;;51.80;24.90;;;0.30;99.90;;;;;;5045302;28;20106;-78
2021/12/23 09:58:58;;;;;;;55.20;24.83;;;0.30;99.90;;;;;;5044651;28;20044;-78
2021/12/23 10:01:25;;;;;;;50.42;24.08;;;0.30;99.90;;;;;;5044143;28;20132;-76
2021/12/23 10:03:50;;;;;;;42.33;21.17;;;0.30;99.90;;;;;;5045254;28;20092;-78
2021/12/23 10:06:16;;;;;;;53.80;26.63;;;0.30;99.90;;;;;;5045155;28;20079;-77
2021/12/23 10:08:43;;;;;;;49.45;22.13;;;0.40;99.90;;;;;;5045116;28;20626;-77
2021/12/23 10:11:25;;;;;;;56.80;28.08;;;0.40;99.90;;;;;;5036789;28;20107;-78
2021/12/23 10:33:31;;;;;;;65.85;29.02;;;0.40;99.90;;;;;;5031842;28;20110;-77
2021/12/23 10:38:39;;;;;;;72.25;31.58;;;0.40;99.90;;;;;;5044201;28;20527;-76
2021/12/23 10:41:17;;;;;;;70.93;30.70;;;0.40;99.90;;;;;;5044623;28;20056;-77
2021/12/23 10:43:46;;;;;;;76.05;33.45;;;0.40;99.90;;;;;;5044179;28;20091;-78
2021/12/23 10:46:20;;;;;;;72.80;31.85;;;0.40;99.90;;;;;;5042431;28;20091;-77
2021/12/23 10:49:04;;;;;;;70.40;31.85;;;0.40;99.90;;;;;;5041866;28;20380;-77
2021/12/23 10:52:08;;;;;;;75.88;34.42;;;0.40;99.90;;;;;;5039923;28;20049;-78
2021/12/23 11:00:28;;;;;;;78.80;33.80;;;0.40;99.90;;;;;;5042547;28;20071;-77
2021/12/23 11:02:56;;;;;;;85.32;34.83;;;0.40;99.90;;;;;;5041463;28;20056;-77
2021/12/23 11:05:28;;;;;;;83.63;35.72;;;0.40;99.90;;;;;;5039562;28;20088;-78
2021/12/23 11:08:08;;;;;;;79.68;35.30;;;0.40;99.90;;;;;;5041274;28;20041;-78
2021/12/23 11:28:01;;;;;;;81.65;35.15;;;0.40;99.90;;;;;;5020894;28;20057;-78
2021/12/23 11:36:18;;;;;;;86.97;35.58;;;0.40;99.90;;;;;;5039931;28;20049;-79
2021/12/23 11:41:33;;;;;;;86.70;34.65;;;0.40;99.90;;;;;;5040551;28;20049;-80
2021/12/23 11:44:01;;;;;;;71.90;28.55;;;0.40;99.90;;;;;;5037802;28;20476;-77
2021/12/23 11:46:31;;;;;;;94.45;38.95;;;0.40;99.90;;;;;;5040173;28;20416;-77
2021/12/23 11:49:01;;;;;;;68.60;30.00;;;0.40;99.90;;;;;;5042526;28;20044;-79
2021/12/23 11:52:01;;;;;;;78.22;36.58;;;0.50;99.90;;;;;;5044328;28;20060;-79
2021/12/23 11:54:23;;;;;;;89.68;35.40;;;0.40;99.90;;;;;;5042591;28;20614;-81
2021/12/23 11:56:52;;;;;;;92.05;37.53;;;0.40;99.90;;;;;;5044908;28;20412;-79
2021/12/23 11:59:19;;;;;;;78.38;30.67;;;0.40;99.90;;;;;;5044899;28;20060;-80
2021/12/23 12:01:52;;;;;;;103.85;38.67;;;0.40;99.90;;;;;;5044966;28;20127;-80
2021/12/23 12:04:35;;;;;;;89.75;36.80;;;0.40;99.90;;;;;;5025832;28;20071;-79
2021/12/23 12:07:10;;;;;;;86.65;34.38;;;0.40;99.90;;;;;;5043363;28;20123;-80
2021/12/23 12:09:38;;;;;;;102.38;38.35;;;0.40;99.90;;;;;;5042739;28;20037;-82
2021/12/23 12:12:11;;;;;;;83.45;32.65;;;0.50;99.90;;;;;;5044009;28;20056;-80
2021/12/23 12:14:40;;;;;;;94.65;36.30;;;0.40;99.90;;;;;;5044159;28;20057;-80
2021/12/23 12:17:24;;;;;;;93.25;36.17;;;0.40;99.90;;;;;;5034204;28;20432;-79
2021/12/23 12:19:58;;;;;;;61.17;25.80;;;0.50;99.90;;;;;;5038244;28;20150;-80
2021/12/23 12:22:48;;;;;;;111.85;41.38;;;0.50;99.90;;;;;;5047306;28;20053;-80
2021/12/23 12:25:22;;;;;;;96.85;39.20;;;0.50;99.90;;;;;;5031802;28;20473;-80
2021/12/23 12:27:49;;;;;;;94.68;36.22;;;0.50;99.90;;;;;;5026821;28;20063;-80
2021/12/23 12:30:17;;;;;;;;;;;0.50;99.90;;;;;;5026532;28;20050;-79
2021/12/23 12:32:44;;;;;;;88.07;32.80;;;0.50;99.90;;;;;;5025490;28;19925;-80
2021/12/23 12:35:13;;;;;;;90.72;34.90;;;0.50;99.90;;;;;;5025301;28;20152;-81
2021/12/23 12:37:43;;;;;;;100.68;40.47;;;0.50;99.90;;;;;;5025885;28;20049;-80
2021/12/23 12:40:10;;;;;;;101.93;39.47;;;0.50;99.90;;;;;;5026230;28;20440;-81
2021/12/23 12:42:40;;;;;;;97.80;39.25;;;0.50;99.90;;;;;;5026215;28;20508;-81
2021/12/23 12:45:14;;;;;;;111.70;41.00;;;0.50;99.90;;;;;;5026484;28;20135;-82
2021/12/23 12:47:49;;;;;;;100.60;41.03;;;0.50;99.90;;;;;;5025981;28;20049;-80
2021/12/23 12:50:18;;;;;;;104.40;39.65;;;0.60;99.90;;;;;;5026441;28;20416;-80
2021/12/23 12:52:48;;;;;;;102.72;38.70;;;0.50;99.90;;;;;;5026211;28;20500;-82
2021/12/23 12:55:23;;;;;;;109.63;41.25;;;0.60;99.90;;;;;;5026073;28;20072;-81
2021/12/23 12:57:58;;;;;;;110.13;41.50;;;0.50;99.90;;;;;;5026720;28;20076;-80
2021/12/23 13:00:38;;;;;;;111.35;38.97;;;0.50;99.90;;;;;;5024863;28;20080;-80
2021/12/23 13:03:14;;;;;;;108.85;42.08;;;0.50;99.90;;;;;;5025354;28;20088;-80
2021/12/23 13:05:43;;;;;;;112.47;42.20;;;0.50;99.90;;;;;;5026384;28;20460;-81
2021/12/23 13:08:20;;;;;;;102.93;40.38;;;0.60;99.90;;;;;;5025994;28;20519;-81
2021/12/23 13:10:50;;;;;;;119.80;41.40;;;0.50;99.90;;;;;;5026208;28;20053;-82
2021/12/23 13:13:31;;;;;;;111.93;39.28;;;0.60;99.90;;;;;;5025551;28;20053;-80
2021/12/23 13:16:00;;;;;;;104.03;39.63;;;0.60;99.90;;;;;;5025377;28;20057;-79
2021/12/23 13:18:26;;;;;;;97.68;36.72;;;0.60;99.90;;;;;;5025403;28;20128;-77
2021/12/23 13:20:55;;;;;;;113.85;42.72;;;0.60;99.90;;;;;;5024877;28;20126;-78
2021/12/23 13:23:32;;;;;;;104.32;37.85;;;0.60;99.90;;;;;;5031884;28;20049;-79
2021/12/23 13:26:05;;;;;;;103.85;38.60;;;0.60;99.90;;;;;;5041044;28;20401;-78
2021/12/23 13:28:46;;;;;;;110.00;39.83;;;0.60;99.90;;;;;;5044259;28;20063;-77
2021/12/23 13:31:19;;;;;;;107.03;39.72;;;0.70;99.90;;;;;;5028449;28;20056;-79
2021/12/23 13:33:57;;;;;;;108.75;38.05;;;0.70;99.90;;;;;;5029912;28;20152;-77
2021/12/23 13:36:23;;;;;;;102.20;37.28;;;0.60;99.90;;;;;;5033510;28;20056;-78
2021/12/23 13:38:55;;;;;;;106.25;40.80;;;0.70;99.90;;;;;;5029749;28;20041;-77
2021/12/23 13:41:27;;;;;;;94.00;38.83;;;0.60;99.90;;;;;;5024053;28;20080;-77